sensor_id;sensor_type;location;lat;lon;timestamp;pressure;altitude;pressure_sealevel;temperature;humidity
63773;BME280;49919;53.612;55.898;2022-08-01T00:00:14;99175.81;;;19.52;57.30
63773;BME280;49919;53.612;55.898;2022-08-01T00:01:44;99177.91;;;19.55;57.19
63773;BME280;49919;53.612;55.898;2022-08-01T00:03:15;99179.50;;;19.56;57.28
63773;BME280;49919;53.612;55.898;2022-08-01T00:04:46;99179.50;;;19.56;57.29
63773;BME280;49919;53.612;55.898;2022-08-01T00:06:17;99182.19;;;19.56;57.28
63773;BME280;49919;53.612;55.898;2022-08-01T00:07:47;99178.41;;;19.57;57.07
63773;BME280;49919;53.612;55.898;2022-08-01T00:09:18;99176.22;;;19.59;57.01
63773;BME280;49919;53.612;55.898;2022-08-01T00:10:49;99178.41;;;19.57;57.17
63773;BME280;49919;53.612;55.898;2022-08-01T00:12:20;99175.19;;;19.55;57.05
63773;BME280;49919;53.612;55.898;2022-08-01T00:13:50;99180.69;;;19.50;57.13
63773;BME280;49919;53.612;55.898;2022-08-01T00:15:21;99188.06;;;19.44;57.15
63773;BME280;49919;53.612;55.898;2022-08-01T00:16:52;99187.06;;;19.40;57.28
63773;BME280;49919;53.612;55.898;2022-08-01T00:18:22;99190.38;;;19.37;57.46
63773;BME280;49919;53.612;55.898;2022-08-01T00:19:53;99179.38;;;19.34;57.90
63773;BME280;49919;53.612;55.898;2022-08-01T00:21:24;99181.78;;;19.35;57.90
63773;BME280;49919;53.612;55.898;2022-08-01T00:22:54;99180.16;;;19.34;57.73
63773;BME280;49919;53.612;55.898;2022-08-01T00:24:25;99184.16;;;19.37;57.69
63773;BME280;49919;53.612;55.898;2022-08-01T00:25:56;99182.78;;;19.39;57.57
63773;BME280;49919;53.612;55.898;2022-08-01T00:27:27;99185.19;;;19.41;57.46
63773;BME280;49919;53.612;55.898;2022-08-01T00:28:58;99180.28;;;19.43;57.62
63773;BME280;49919;53.612;55.898;2022-08-01T00:30:28;99178.19;;;19.40;57.84
63773;BME280;49919;53.612;55.898;2022-08-01T00:31:59;99180.88;;;19.40;57.85
63773;BME280;49919;53.612;55.898;2022-08-01T00:33:30;99184.66;;;19.39;58.11
63773;BME280;49919;53.612;55.898;2022-08-01T00:35:00;99177.88;;;19.41;58.08
63773;BME280;49919;53.612;55.898;2022-08-01T00:36:31;99188.38;;;19.43;57.95
63773;BME280;49919;53.612;55.898;2022-08-01T00:38:02;99189.38;;;19.47;57.94
63773;BME280;49919;53.612;55.898;2022-08-01T00:39:33;99181.00;;;19.48;57.94
63773;BME280;49919;53.612;55.898;2022-08-01T00:41:03;99187.09;;;19.54;58.12
63773;BME280;49919;53.612;55.898;2022-08-01T00:42:34;99187.50;;;19.61;57.69
63773;BME280;49919;53.612;55.898;2022-08-01T00:44:05;99182.59;;;19.63;58.13
63773;BME280;49919;53.612;55.898;2022-08-01T00:45:36;99188.59;;;19.60;58.57
63773;BME280;49919;53.612;55.898;2022-08-01T00:47:07;99194.78;;;19.61;59.03
63773;BME280;49919;53.612;55.898;2022-08-01T00:48:37;99192.38;;;19.59;59.32
63773;BME280;49919;53.612;55.898;2022-08-01T00:50:09;99192.09;;;19.61;59.63
63773;BME280;49919;53.612;55.898;2022-08-01T00:51:40;99191.28;;;19.60;59.99
63773;BME280;49919;53.612;55.898;2022-08-01T00:53:10;99190.28;;;19.56;60.40
63773;BME280;49919;53.612;55.898;2022-08-01T00:54:41;99189.78;;;19.54;60.71
63773;BME280;49919;53.612;55.898;2022-08-01T00:56:13;99188.19;;;19.53;61.02
63773;BME280;49919;53.612;55.898;2022-08-01T00:57:44;99183.88;;;19.52;61.41
63773;BME280;49919;53.612;55.898;2022-08-01T00:59:14;99192.53;;;19.49;61.55
63773;BME280;49919;53.612;55.898;2022-08-01T01:00:47;99186.19;;;19.45;62.42
63773;BME280;49919;53.612;55.898;2022-08-01T01:02:18;99184.06;;;19.42;62.29
63773;BME280;49919;53.612;55.898;2022-08-01T01:03:49;99180.78;;;19.45;62.63
63773;BME280;49919;53.612;55.898;2022-08-01T01:05:20;99185.97;;;19.41;63.18
63773;BME280;49919;53.612;55.898;2022-08-01T01:08:22;99182.56;;;19.36;63.65
63773;BME280;49919;53.612;55.898;2022-08-01T01:09:58;99179.06;;;19.35;63.64
63773;BME280;49919;53.612;55.898;2022-08-01T01:11:40;99179.88;;;19.36;64.05
63773;BME280;49919;53.612;55.898;2022-08-01T01:13:23;99181.28;;;19.33;64.01
63773;BME280;49919;53.612;55.898;2022-08-01T01:16:40;99174.69;;;19.26;64.95
63773;BME280;49919;53.612;55.898;2022-08-01T01:18:22;99187.75;;;19.18;65.61
63773;BME280;49919;53.612;55.898;2022-08-01T01:19:54;99184.34;;;19.13;66.14
63773;BME280;49919;53.612;55.898;2022-08-01T01:24:37;99182.78;;;19.26;65.75
63773;BME280;49919;53.612;55.898;2022-08-01T01:27:51;99186.16;;;19.31;65.70
63773;BME280;49919;53.612;55.898;2022-08-01T01:29:31;99183.66;;;19.35;65.70
63773;BME280;49919;53.612;55.898;2022-08-01T01:31:04;99193.06;;;19.37;65.90
63773;BME280;49919;53.612;55.898;2022-08-01T01:32:43;99188.38;;;19.43;65.95
63773;BME280;49919;53.612;55.898;2022-08-01T01:34:16;99196.38;;;19.48;65.50
63773;BME280;49919;53.612;55.898;2022-08-01T01:35:48;99188.69;;;19.55;64.67
63773;BME280;49919;53.612;55.898;2022-08-01T01:37:23;99193.38;;;19.63;64.27
63773;BME280;49919;53.612;55.898;2022-08-01T01:38:55;99194.56;;;19.71;63.96
63773;BME280;49919;53.612;55.898;2022-08-01T01:40:26;99191.47;;;19.77;63.53
63773;BME280;49919;53.612;55.898;2022-08-01T01:41:57;99193.06;;;19.78;63.52
63773;BME280;49919;53.612;55.898;2022-08-01T01:43:29;99199.44;;;19.82;63.34
63773;BME280;49919;53.612;55.898;2022-08-01T01:45:00;99195.06;;;19.87;63.05
63773;BME280;49919;53.612;55.898;2022-08-01T01:46:33;99192.34;;;19.87;62.93
63773;BME280;49919;53.612;55.898;2022-08-01T01:48:06;99192.56;;;19.90;62.48
63773;BME280;49919;53.612;55.898;2022-08-01T01:49:38;99191.63;;;19.95;62.23
63773;BME280;49919;53.612;55.898;2022-08-01T01:51:10;99195.13;;;19.95;61.65
63773;BME280;49919;53.612;55.898;2022-08-01T01:52:42;99192.72;;;19.94;61.36
63773;BME280;49919;53.612;55.898;2022-08-01T01:54:14;99192.91;;;19.97;61.44
63773;BME280;49919;53.612;55.898;2022-08-01T01:55:46;99192.50;;;20.04;61.25
63773;BME280;49919;53.612;55.898;2022-08-01T01:57:18;99194.09;;;20.05;61.32
63773;BME280;49919;53.612;55.898;2022-08-01T01:58:53;99198.09;;;20.07;61.17
63773;BME280;49919;53.612;55.898;2022-08-01T02:00:25;99191.16;;;20.15;61.82
63773;BME280;49919;53.612;55.898;2022-08-01T02:01:57;99192.97;;;20.19;62.44
63773;BME280;49919;53.612;55.898;2022-08-01T02:03:29;99199.66;;;20.22;62.65
63773;BME280;49919;53.612;55.898;2022-08-01T02:05:00;99199.53;;;20.27;62.76
63773;BME280;49919;53.612;55.898;2022-08-01T02:06:34;99197.34;;;20.29;62.75
63773;BME280;49919;53.612;55.898;2022-08-01T02:08:05;99193.41;;;20.35;62.67
63773;BME280;49919;53.612;55.898;2022-08-01T02:09:37;99192.41;;;20.45;62.57
63773;BME280;49919;53.612;55.898;2022-08-01T02:11:08;99194.19;;;20.49;62.58
63773;BME280;49919;53.612;55.898;2022-08-01T02:12:53;99192.16;;;20.55;62.40
63773;BME280;49919;53.612;55.898;2022-08-01T02:14:25;99190.63;;;20.63;62.50
63773;BME280;49919;53.612;55.898;2022-08-01T02:15:57;99195.22;;;20.62;62.19
63773;BME280;49919;53.612;55.898;2022-08-01T02:17:28;99195.72;;;20.64;62.15
63773;BME280;49919;53.612;55.898;2022-08-01T02:19:00;99198.72;;;20.63;62.33
63773;BME280;49919;53.612;55.898;2022-08-01T02:20:31;99201.78;;;20.70;62.32
63773;BME280;49919;53.612;55.898;2022-08-01T02:22:06;99195.66;;;20.78;61.81
63773;BME280;49919;53.612;55.898;2022-08-01T02:23:38;99195.38;;;20.88;61.67
63773;BME280;49919;53.612;55.898;2022-08-01T02:25:17;99193.06;;;20.95;61.56
63773;BME280;49919;53.612;55.898;2022-08-01T02:26:50;99195.13;;;20.98;61.22
63773;BME280;49919;53.612;55.898;2022-08-01T02:28:28;99198.66;;;21.07;61.32
63773;BME280;49919;53.612;55.898;2022-08-01T02:30:01;99197.03;;;21.20;61.02
63773;BME280;49919;53.612;55.898;2022-08-01T02:31:35;99201.66;;;21.28;60.55
63773;BME280;49919;53.612;55.898;2022-08-01T02:33:12;99204.16;;;21.25;60.69
63773;BME280;49919;53.612;55.898;2022-08-01T02:34:46;99202.94;;;21.31;60.44
63773;BME280;49919;53.612;55.898;2022-08-01T02:36:17;99208.22;;;21.36;60.25
63773;BME280;49919;53.612;55.898;2022-08-01T02:37:50;99212.53;;;21.45;60.12
63773;BME280;49919;53.612;55.898;2022-08-01T02:39:21;99213.19;;;21.51;59.94
63773;BME280;49919;53.612;55.898;2022-08-01T02:40:53;99215.75;;;21.56;59.69
63773;BME280;49919;53.612;55.898;2022-08-01T02:42:27;99211.16;;;21.65;59.31
63773;BME280;49919;53.612;55.898;2022-08-01T02:44:01;99206.41;;;21.71;59.13
63773;BME280;49919;53.612;55.898;2022-08-01T02:45:33;99201.78;;;21.71;59.11
63773;BME280;49919;53.612;55.898;2022-08-01T02:47:05;99207.81;;;21.68;59.46
63773;BME280;49919;53.612;55.898;2022-08-01T02:48:36;99217.72;;;21.73;59.24
63773;BME280;49919;53.612;55.898;2022-08-01T02:50:10;99211.69;;;21.76;59.05
63773;BME280;49919;53.612;55.898;2022-08-01T02:51:42;99209.13;;;21.79;59.08
63773;BME280;49919;53.612;55.898;2022-08-01T02:53:14;99214.72;;;21.83;59.11
63773;BME280;49919;53.612;55.898;2022-08-01T02:54:47;99207.09;;;21.85;59.06
63773;BME280;49919;53.612;55.898;2022-08-01T02:56:19;99210.09;;;21.92;59.04
63773;BME280;49919;53.612;55.898;2022-08-01T02:57:50;99205.81;;;21.91;59.02
63773;BME280;49919;53.612;55.898;2022-08-01T02:59:24;99204.84;;;21.87;59.01
63773;BME280;49919;53.612;55.898;2022-08-01T03:00:56;99206.59;;;21.92;58.82
63773;BME280;49919;53.612;55.898;2022-08-01T03:02:28;99209.47;;;21.95;58.78
63773;BME280;49919;53.612;55.898;2022-08-01T03:03:59;99211.88;;;21.97;58.46
63773;BME280;49919;53.612;55.898;2022-08-01T03:05:30;99216.38;;;22.01;58.26
63773;BME280;49919;53.612;55.898;2022-08-01T03:07:03;99219.88;;;22.02;58.70
63773;BME280;49919;53.612;55.898;2022-08-01T03:08:34;99215.25;;;22.11;58.50
63773;BME280;49919;53.612;55.898;2022-08-01T03:10:06;99214.78;;;22.17;58.18
63773;BME280;49919;53.612;55.898;2022-08-01T03:11:36;99206.34;;;22.19;58.24
63773;BME280;49919;53.612;55.898;2022-08-01T03:13:10;99214.63;;;22.22;58.34
63773;BME280;49919;53.612;55.898;2022-08-01T03:14:42;99215.75;;;22.30;58.17
63773;BME280;49919;53.612;55.898;2022-08-01T03:16:13;99213.34;;;22.37;57.91
63773;BME280;49919;53.612;55.898;2022-08-01T03:17:45;99213.69;;;22.36;58.04
63773;BME280;49919;53.612;55.898;2022-08-01T03:19:17;99213.22;;;22.42;57.84
63773;BME280;49919;53.612;55.898;2022-08-01T03:20:48;99203.66;;;22.45;57.62
63773;BME280;49919;53.612;55.898;2022-08-01T03:22:21;99201.09;;;22.48;57.70
63773;BME280;49919;53.612;55.898;2022-08-01T03:23:52;99201.41;;;22.55;57.59
63773;BME280;49919;53.612;55.898;2022-08-01T03:25:27;99204.56;;;22.57;57.51
63773;BME280;49919;53.612;55.898;2022-08-01T03:26:59;99207.63;;;22.65;57.36
63773;BME280;49919;53.612;55.898;2022-08-01T03:28:30;99205.53;;;22.79;57.11
63773;BME280;49919;53.612;55.898;2022-08-01T03:30:02;99202.97;;;22.91;56.59
63773;BME280;49919;53.612;55.898;2022-08-01T03:31:36;99204.38;;;22.97;56.48
63773;BME280;49919;53.612;55.898;2022-08-01T03:33:08;99202.91;;;23.08;56.21
63773;BME280;49919;53.612;55.898;2022-08-01T03:34:39;99206.56;;;23.12;56.05
63773;BME280;49919;53.612;55.898;2022-08-01T03:36:10;99205.94;;;23.15;56.17
63773;BME280;49919;53.612;55.898;2022-08-01T03:37:47;99205.56;;;23.25;56.03
63773;BME280;49919;53.612;55.898;2022-08-01T03:39:21;99206.50;;;23.30;55.96
63773;BME280;49919;53.612;55.898;2022-08-01T03:40:53;99204.53;;;23.39;56.16
63773;BME280;49919;53.612;55.898;2022-08-01T03:42:47;99199.09;;;23.56;55.58
63773;BME280;49919;53.612;55.898;2022-08-01T03:44:20;99199.56;;;23.58;55.23
63773;BME280;49919;53.612;55.898;2022-08-01T03:45:53;99200.94;;;23.64;55.06
63773;BME280;49919;53.612;55.898;2022-08-01T03:47:26;99198.84;;;23.70;54.96
63773;BME280;49919;53.612;55.898;2022-08-01T03:49:00;99185.22;;;23.78;54.79
63773;BME280;49919;53.612;55.898;2022-08-01T03:50:34;99192.19;;;23.88;54.40
63773;BME280;49919;53.612;55.898;2022-08-01T03:52:06;99199.53;;;23.87;54.40
63773;BME280;49919;53.612;55.898;2022-08-01T03:53:37;99203.66;;;23.93;54.48
63773;BME280;49919;53.612;55.898;2022-08-01T03:55:09;99198.16;;;24.02;54.36
63773;BME280;49919;53.612;55.898;2022-08-01T03:56:41;99203.97;;;24.13;54.02
63773;BME280;49919;53.612;55.898;2022-08-01T03:58:13;99199.28;;;24.22;54.05
63773;BME280;49919;53.612;55.898;2022-08-01T03:59:44;99200.03;;;24.31;53.84
63773;BME280;49919;53.612;55.898;2022-08-01T04:01:15;99203.28;;;24.45;53.78
63773;BME280;49919;53.612;55.898;2022-08-01T04:02:47;99211.59;;;24.61;53.14
63773;BME280;49919;53.612;55.898;2022-08-01T04:04:18;99212.44;;;24.74;52.17
63773;BME280;49919;53.612;55.898;2022-08-01T04:05:48;99209.19;;;24.80;52.06
63773;BME280;49919;53.612;55.898;2022-08-01T04:07:23;99210.56;;;24.86;51.91
63773;BME280;49919;53.612;55.898;2022-08-01T04:08:54;99209.94;;;25.02;51.55
63773;BME280;49919;53.612;55.898;2022-08-01T04:10:28;99209.63;;;25.15;49.76
63773;BME280;49919;53.612;55.898;2022-08-01T04:11:59;99206.94;;;25.27;48.95
63773;BME280;49919;53.612;55.898;2022-08-01T04:13:31;99213.28;;;25.44;48.65
63773;BME280;49919;53.612;55.898;2022-08-01T04:15:02;99211.91;;;25.62;48.18
63773;BME280;49919;53.612;55.898;2022-08-01T04:16:35;99210.91;;;25.79;47.48
63773;BME280;49919;53.612;55.898;2022-08-01T04:18:05;99205.81;;;25.89;47.07
63773;BME280;49919;53.612;55.898;2022-08-01T04:19:37;99213.47;;;26.00;46.42
63773;BME280;49919;53.612;55.898;2022-08-01T04:21:08;99209.84;;;26.08;46.25
63773;BME280;49919;53.612;55.898;2022-08-01T04:22:39;99212.19;;;26.21;46.28
63773;BME280;49919;53.612;55.898;2022-08-01T04:24:13;99214.47;;;26.32;45.70
63773;BME280;49919;53.612;55.898;2022-08-01T04:25:45;99212.03;;;26.42;45.79
63773;BME280;49919;53.612;55.898;2022-08-01T04:27:20;99210.19;;;26.58;45.10
63773;BME280;49919;53.612;55.898;2022-08-01T04:28:51;99210.75;;;26.80;44.48
63773;BME280;49919;53.612;55.898;2022-08-01T04:30:23;99220.44;;;26.93;44.18
63773;BME280;49919;53.612;55.898;2022-08-01T04:31:56;99218.91;;;27.08;43.47
63773;BME280;49919;53.612;55.898;2022-08-01T04:33:30;99214.09;;;27.17;43.26
63773;BME280;49919;53.612;55.898;2022-08-01T04:35:06;99212.78;;;27.26;43.00
63773;BME280;49919;53.612;55.898;2022-08-01T04:36:37;99208.97;;;27.31;43.08
63773;BME280;49919;53.612;55.898;2022-08-01T04:38:12;99207.22;;;27.39;42.78
63773;BME280;49919;53.612;55.898;2022-08-01T04:39:44;99203.53;;;27.47;42.49
63773;BME280;49919;53.612;55.898;2022-08-01T04:41:16;99201.66;;;27.51;42.63
63773;BME280;49919;53.612;55.898;2022-08-01T04:42:48;99202.97;;;27.57;42.75
63773;BME280;49919;53.612;55.898;2022-08-01T04:44:19;99191.09;;;27.65;42.74
63773;BME280;49919;53.612;55.898;2022-08-01T04:45:50;99204.91;;;27.72;42.19
63773;BME280;49919;53.612;55.898;2022-08-01T04:47:21;99199.03;;;27.70;42.49
63773;BME280;49919;53.612;55.898;2022-08-01T04:48:53;99196.44;;;27.77;42.51
63773;BME280;49919;53.612;55.898;2022-08-01T04:50:25;99204.72;;;27.81;42.06
63773;BME280;49919;53.612;55.898;2022-08-01T04:51:56;99201.28;;;27.84;42.36
63773;BME280;49919;53.612;55.898;2022-08-01T04:53:33;99197.84;;;27.87;42.40
63773;BME280;49919;53.612;55.898;2022-08-01T04:55:04;99205.38;;;27.93;42.44
63773;BME280;49919;53.612;55.898;2022-08-01T04:56:36;99199.81;;;28.06;42.24
63773;BME280;49919;53.612;55.898;2022-08-01T04:58:07;99204.69;;;28.16;41.46
63773;BME280;49919;53.612;55.898;2022-08-01T04:59:41;99206.94;;;28.10;41.56
63773;BME280;49919;53.612;55.898;2022-08-01T05:01:12;99201.75;;;28.05;41.79
63773;BME280;49919;53.612;55.898;2022-08-01T05:02:43;99195.22;;;28.10;41.98
63773;BME280;49919;53.612;55.898;2022-08-01T05:04:14;99198.25;;;28.24;41.21
63773;BME280;49919;53.612;55.898;2022-08-01T05:05:45;99195.41;;;28.36;41.15
63773;BME280;49919;53.612;55.898;2022-08-01T05:07:16;99194.09;;;28.49;40.98
63773;BME280;49919;53.612;55.898;2022-08-01T05:08:46;99198.56;;;28.57;40.86
63773;BME280;49919;53.612;55.898;2022-08-01T05:10:17;99194.44;;;28.67;40.76
63773;BME280;49919;53.612;55.898;2022-08-01T05:11:48;99192.28;;;28.76;39.76
63773;BME280;49919;53.612;55.898;2022-08-01T05:13:19;99186.56;;;28.85;39.73
63773;BME280;49919;53.612;55.898;2022-08-01T05:14:50;99186.41;;;28.97;39.54
63773;BME280;49919;53.612;55.898;2022-08-01T05:16:21;99190.03;;;29.01;39.20
63773;BME280;49919;53.612;55.898;2022-08-01T05:17:51;99188.47;;;29.04;39.04
63773;BME280;49919;53.612;55.898;2022-08-01T05:19:22;99183.19;;;29.14;39.11
63773;BME280;49919;53.612;55.898;2022-08-01T05:20:53;99186.59;;;29.30;38.67
63773;BME280;49919;53.612;55.898;2022-08-01T05:22:24;99187.63;;;29.45;38.54
63773;BME280;49919;53.612;55.898;2022-08-01T05:23:55;99182.47;;;29.66;38.11
63773;BME280;49919;53.612;55.898;2022-08-01T05:25:26;99179.63;;;29.86;37.81
63773;BME280;49919;53.612;55.898;2022-08-01T05:26:58;99182.59;;;30.00;37.46
63773;BME280;49919;53.612;55.898;2022-08-01T05:28:29;99181.97;;;30.14;37.06
63773;BME280;49919;53.612;55.898;2022-08-01T05:30:00;99187.13;;;30.19;37.20
63773;BME280;49919;53.612;55.898;2022-08-01T05:31:30;99189.59;;;30.27;36.58
63773;BME280;49919;53.612;55.898;2022-08-01T05:33:04;99181.91;;;30.40;36.52
63773;BME280;49919;53.612;55.898;2022-08-01T05:34:35;99192.63;;;30.52;36.17
63773;BME280;49919;53.612;55.898;2022-08-01T05:36:05;99191.53;;;30.57;35.84
63773;BME280;49919;53.612;55.898;2022-08-01T05:37:36;99190.84;;;30.67;36.09
63773;BME280;49919;53.612;55.898;2022-08-01T05:39:07;99187.53;;;30.88;35.75
63773;BME280;49919;53.612;55.898;2022-08-01T05:40:37;99188.53;;;31.10;35.50
63773;BME280;49919;53.612;55.898;2022-08-01T05:42:08;99191.06;;;31.29;35.10
63773;BME280;49919;53.612;55.898;2022-08-01T05:43:39;99204.19;;;31.50;34.85
63773;BME280;49919;53.612;55.898;2022-08-01T05:45:10;99187.75;;;31.57;34.48
63773;BME280;49919;53.612;55.898;2022-08-01T05:46:40;99191.69;;;31.63;34.88
63773;BME280;49919;53.612;55.898;2022-08-01T05:48:12;99192.16;;;31.68;34.23
63773;BME280;49919;53.612;55.898;2022-08-01T05:49:43;99201.22;;;31.69;34.20
63773;BME280;49919;53.612;55.898;2022-08-01T05:51:13;99201.66;;;31.78;33.81
63773;BME280;49919;53.612;55.898;2022-08-01T05:52:44;99194.22;;;31.86;32.80
63773;BME280;49919;53.612;55.898;2022-08-01T05:54:15;99195.47;;;31.92;33.00
63773;BME280;49919;53.612;55.898;2022-08-01T05:55:46;99191.97;;;32.06;31.58
63773;BME280;49919;53.612;55.898;2022-08-01T05:57:16;99191.31;;;32.26;30.84
63773;BME280;49919;53.612;55.898;2022-08-01T05:58:47;99191.44;;;32.48;30.61
63773;BME280;49919;53.612;55.898;2022-08-01T06:00:18;99184.38;;;32.71;29.93
63773;BME280;49919;53.612;55.898;2022-08-01T06:01:49;99190.75;;;32.97;29.68
63773;BME280;49919;53.612;55.898;2022-08-01T06:03:19;99187.22;;;33.18;29.50
63773;BME280;49919;53.612;55.898;2022-08-01T06:04:50;99189.25;;;33.31;28.72
63773;BME280;49919;53.612;55.898;2022-08-01T06:06:21;99181.38;;;33.30;28.72
63773;BME280;49919;53.612;55.898;2022-08-01T06:07:52;99186.88;;;33.26;28.25
63773;BME280;49919;53.612;55.898;2022-08-01T06:09:22;99192.75;;;33.07;28.19
63773;BME280;49919;53.612;55.898;2022-08-01T06:10:53;99190.34;;;32.95;28.88
63773;BME280;49919;53.612;55.898;2022-08-01T06:12:24;99191.16;;;32.99;29.03
63773;BME280;49919;53.612;55.898;2022-08-01T06:13:54;99191.56;;;33.19;28.80
63773;BME280;49919;53.612;55.898;2022-08-01T06:15:25;99193.56;;;33.54;28.47
63773;BME280;49919;53.612;55.898;2022-08-01T06:16:56;99191.94;;;33.74;28.40
63773;BME280;49919;53.612;55.898;2022-08-01T06:18:27;99189.16;;;33.92;28.06
63773;BME280;49919;53.612;55.898;2022-08-01T06:19:58;99185.97;;;34.04;28.07
63773;BME280;49919;53.612;55.898;2022-08-01T06:21:28;99183.97;;;34.19;28.16
63773;BME280;49919;53.612;55.898;2022-08-01T06:22:59;99183.91;;;34.26;28.02
63773;BME280;49919;53.612;55.898;2022-08-01T06:24:30;99180.69;;;34.45;28.12
63773;BME280;49919;53.612;55.898;2022-08-01T06:26:00;99187.72;;;34.60;26.92
63773;BME280;49919;53.612;55.898;2022-08-01T06:27:33;99183.88;;;34.40;27.00
63773;BME280;49919;53.612;55.898;2022-08-01T06:29:04;99183.56;;;34.17;27.18
63773;BME280;49919;53.612;55.898;2022-08-01T06:30:35;99174.94;;;34.04;27.22
63773;BME280;49919;53.612;55.898;2022-08-01T06:32:06;99182.88;;;33.84;27.48
63773;BME280;49919;53.612;55.898;2022-08-01T06:33:37;99182.88;;;33.66;27.86
63773;BME280;49919;53.612;55.898;2022-08-01T06:35:07;99178.94;;;33.60;27.77
63773;BME280;49919;53.612;55.898;2022-08-01T06:36:38;99175.84;;;33.51;27.53
63773;BME280;49919;53.612;55.898;2022-08-01T06:38:09;99174.22;;;33.61;27.28
63773;BME280;49919;53.612;55.898;2022-08-01T06:39:39;99179.34;;;33.73;27.51
63773;BME280;49919;53.612;55.898;2022-08-01T06:41:10;99169.47;;;33.86;27.02
63773;BME280;49919;53.612;55.898;2022-08-01T06:42:41;99177.38;;;33.77;27.25
63773;BME280;49919;53.612;55.898;2022-08-01T06:44:12;99171.84;;;33.70;27.30
63773;BME280;49919;53.612;55.898;2022-08-01T06:45:43;99167.13;;;33.60;27.46
63773;BME280;49919;53.612;55.898;2022-08-01T06:47:14;99167.13;;;33.56;27.86
63773;BME280;49919;53.612;55.898;2022-08-01T06:48:45;99176.59;;;33.66;27.91
63773;BME280;49919;53.612;55.898;2022-08-01T06:50:15;99171.84;;;33.77;28.04
63773;BME280;49919;53.612;55.898;2022-08-01T06:51:46;99171.47;;;33.79;27.85
63773;BME280;49919;53.612;55.898;2022-08-01T06:53:17;99177.38;;;33.74;28.08
63773;BME280;49919;53.612;55.898;2022-08-01T06:54:47;99164.78;;;33.58;28.42
63773;BME280;49919;53.612;55.898;2022-08-01T06:56:18;99162.44;;;33.46;28.60
63773;BME280;49919;53.612;55.898;2022-08-01T06:57:49;99164.03;;;33.29;28.77
63773;BME280;49919;53.612;55.898;2022-08-01T06:59:20;99167.16;;;33.24;29.03
63773;BME280;49919;53.612;55.898;2022-08-01T07:00:51;99162.44;;;33.25;29.17
63773;BME280;49919;53.612;55.898;2022-08-01T07:02:22;99164.03;;;33.40;29.39
63773;BME280;49919;53.612;55.898;2022-08-01T07:03:53;99159.25;;;33.58;28.92
63773;BME280;49919;53.612;55.898;2022-08-01T07:05:24;99156.94;;;33.50;28.83
63773;BME280;49919;53.612;55.898;2022-08-01T07:06:55;99159.69;;;33.21;29.26
63773;BME280;49919;53.612;55.898;2022-08-01T07:08:25;99155.38;;;33.06;29.54
63773;BME280;49919;53.612;55.898;2022-08-01T07:09:56;99160.06;;;32.98;29.83
63773;BME280;49919;53.612;55.898;2022-08-01T07:11:27;99162.41;;;32.82;29.89
63773;BME280;49919;53.612;55.898;2022-08-01T07:12:58;99149.75;;;32.53;30.28
63773;BME280;49919;53.612;55.898;2022-08-01T07:14:28;99151.16;;;32.11;30.58
63773;BME280;49919;53.612;55.898;2022-08-01T07:15:59;99150.19;;;31.72;30.81
63773;BME280;49919;53.612;55.898;2022-08-01T07:17:30;99146.50;;;31.50;31.26
63773;BME280;49919;53.612;55.898;2022-08-01T07:19:00;99146.78;;;31.34;31.59
63773;BME280;49919;53.612;55.898;2022-08-01T07:20:31;99143.63;;;31.32;31.79
63773;BME280;49919;53.612;55.898;2022-08-01T07:22:02;99134.25;;;31.37;31.68
63773;BME280;49919;53.612;55.898;2022-08-01T07:23:33;99146.13;;;31.55;31.20
63773;BME280;49919;53.612;55.898;2022-08-01T07:25:04;99141.13;;;31.67;30.74
63773;BME280;49919;53.612;55.898;2022-08-01T07:26:35;99145.06;;;31.70;30.48
63773;BME280;49919;53.612;55.898;2022-08-01T07:28:06;99144.69;;;31.72;30.26
63773;BME280;49919;53.612;55.898;2022-08-01T07:29:36;99140.38;;;31.74;30.47
63773;BME280;49919;53.612;55.898;2022-08-01T07:31:07;99139.31;;;31.96;30.10
63773;BME280;49919;53.612;55.898;2022-08-01T07:32:38;99133.94;;;32.28;29.91
63773;BME280;49919;53.612;55.898;2022-08-01T07:34:08;99140.72;;;32.56;28.90
63773;BME280;49919;53.612;55.898;2022-08-01T07:35:39;99134.84;;;32.71;28.24
63773;BME280;49919;53.612;55.898;2022-08-01T07:37:10;99130.91;;;32.65;28.09
63773;BME280;49919;53.612;55.898;2022-08-01T07:38:41;99126.97;;;32.59;28.14
63773;BME280;49919;53.612;55.898;2022-08-01T07:40:11;99129.28;;;32.50;28.04
63773;BME280;49919;53.612;55.898;2022-08-01T07:41:42;99129.69;;;32.49;28.28
63773;BME280;49919;53.612;55.898;2022-08-01T07:43:13;99119.50;;;32.63;28.17
63773;BME280;49919;53.612;55.898;2022-08-01T07:44:44;99125.84;;;32.92;27.80
63773;BME280;49919;53.612;55.898;2022-08-01T07:46:15;99120.34;;;33.31;27.55
63773;BME280;49919;53.612;55.898;2022-08-01T07:47:46;99123.81;;;33.75;27.19
63773;BME280;49919;53.612;55.898;2022-08-01T07:49:17;99121.75;;;34.00;27.01
63773;BME280;49919;53.612;55.898;2022-08-01T07:50:47;99125.97;;;34.33;26.64
63773;BME280;49919;53.612;55.898;2022-08-01T07:52:18;99119.41;;;34.68;25.96
63773;BME280;49919;53.612;55.898;2022-08-01T07:53:49;99115.31;;;34.94;25.24
63773;BME280;49919;53.612;55.898;2022-08-01T07:55:20;99116.69;;;35.16;24.86
63773;BME280;49919;53.612;55.898;2022-08-01T07:56:50;99113.16;;;35.16;24.49
63773;BME280;49919;53.612;55.898;2022-08-01T07:58:21;99108.00;;;35.18;24.60
63773;BME280;49919;53.612;55.898;2022-08-01T07:59:52;99113.72;;;35.41;24.31
63773;BME280;49919;53.612;55.898;2022-08-01T08:01:23;99120.97;;;35.65;23.99
63773;BME280;49919;53.612;55.898;2022-08-01T08:02:53;99110.06;;;35.89;23.80
63773;BME280;49919;53.612;55.898;2022-08-01T08:04:25;99111.78;;;36.10;23.41
63773;BME280;49919;53.612;55.898;2022-08-01T08:05:55;99116.94;;;36.38;23.32
63773;BME280;49919;53.612;55.898;2022-08-01T08:07:26;99106.59;;;36.69;23.17